createdAt,value
2023-05-21T00:00:40.169Z,37.62
2023-05-21T00:01:40.155Z,37.65
2023-05-21T00:02:40.298Z,37.66
2023-05-21T00:03:40.277Z,37.66
2023-05-21T00:04:40.249Z,37.67
2023-05-21T00:05:40.347Z,37.67
2023-05-21T00:06:40.346Z,37.70
2023-05-21T00:07:40.384Z,37.68
2023-05-21T00:08:40.424Z,37.69
2023-05-21T00:09:40.444Z,37.73
2023-05-21T00:10:40.497Z,37.76
2023-05-21T00:11:40.529Z,37.80
2023-05-21T00:12:40.544Z,37.82
2023-05-21T00:13:40.600Z,37.85
2023-05-21T00:14:40.602Z,37.86
2023-05-21T00:15:40.634Z,37.88
2023-05-21T00:16:40.672Z,37.91
2023-05-21T00:17:40.701Z,38.02
2023-05-21T00:18:40.663Z,38.06
2023-05-21T00:19:40.745Z,38.11
2023-05-21T00:20:40.662Z,38.14
2023-05-21T00:21:40.638Z,38.22
2023-05-21T00:22:40.634Z,38.26
2023-05-21T00:23:40.649Z,38.32
2023-05-21T00:24:40.649Z,38.36
2023-05-21T00:25:40.650Z,38.41
2023-05-21T00:26:40.657Z,38.46
2023-05-21T00:27:40.637Z,38.48
2023-05-21T00:28:40.653Z,38.53
2023-05-21T00:29:42.316Z,38.57
2023-05-21T00:30:40.673Z,38.54
2023-05-21T00:31:40.666Z,38.58
2023-05-21T00:32:40.666Z,38.61
2023-05-21T00:33:40.665Z,38.67
2023-05-21T00:34:40.671Z,38.73
2023-05-21T00:35:40.668Z,38.76
2023-05-21T00:36:40.633Z,38.74
2023-05-21T00:37:40.606Z,38.81
2023-05-21T00:38:40.602Z,38.84
2023-05-21T00:39:40.583Z,38.87
2023-05-21T00:40:40.593Z,38.93
2023-05-21T00:41:41.375Z,38.93
2023-05-21T00:42:40.582Z,38.94
2023-05-21T00:43:40.583Z,39.00
2023-05-21T00:44:40.574Z,39.04
2023-05-21T00:45:40.561Z,39.13
2023-05-21T00:46:40.554Z,39.10
2023-05-21T00:47:40.555Z,39.14
2023-05-21T00:48:40.552Z,39.15
2023-05-21T00:49:40.542Z,39.18
2023-05-21T00:50:40.521Z,39.20
2023-05-21T00:51:40.523Z,39.25
2023-05-21T00:52:40.496Z,39.25
2023-05-21T00:53:40.503Z,39.24
2023-05-21T00:54:40.502Z,39.26
2023-05-21T00:55:40.516Z,39.28
2023-05-21T00:56:40.511Z,39.33
2023-05-21T00:57:40.493Z,39.31
2023-05-21T00:58:40.474Z,39.35
2023-05-21T00:59:40.435Z,39.40
2023-05-21T01:00:40.485Z,39.40
2023-05-21T01:01:40.482Z,39.43
2023-05-21T01:02:40.563Z,39.49
2023-05-21T01:03:40.482Z,39.49
2023-05-21T01:04:40.453Z,39.52
2023-05-21T01:05:40.426Z,39.54
2023-05-21T01:06:40.444Z,39.65
2023-05-21T01:07:40.439Z,39.68
2023-05-21T01:08:40.398Z,39.69
2023-05-21T01:09:40.410Z,39.67
2023-05-21T01:10:40.404Z,39.71
2023-05-21T01:11:40.396Z,39.73
2023-05-21T01:12:40.376Z,39.79
2023-05-21T01:13:40.364Z,39.81
2023-05-21T01:14:40.400Z,39.82
2023-05-21T01:15:40.388Z,39.83
2023-05-21T01:16:40.449Z,39.86
2023-05-21T01:17:40.406Z,39.90
2023-05-21T01:18:40.420Z,39.88
2023-05-21T01:19:40.393Z,39.96
2023-05-21T01:20:40.342Z,39.99
2023-05-21T01:21:40.348Z,40.01
2023-05-21T01:22:40.308Z,40.05
2023-05-21T01:23:40.295Z,40.01
2023-05-21T01:24:40.287Z,40.07
2023-05-21T01:25:40.317Z,40.09
2023-05-21T01:26:40.283Z,40.12
2023-05-21T01:27:40.267Z,40.10
2023-05-21T01:28:40.303Z,40.13
2023-05-21T01:29:40.276Z,40.14
2023-05-21T01:30:40.305Z,40.14
2023-05-21T01:31:40.253Z,40.15
2023-05-21T01:32:40.291Z,40.18
2023-05-21T01:33:40.296Z,40.18
2023-05-21T01:34:40.220Z,40.20
2023-05-21T01:35:40.266Z,40.23
2023-05-21T01:36:40.229Z,40.22
2023-05-21T01:37:40.243Z,40.24
2023-05-21T01:38:40.294Z,40.25
2023-05-21T01:39:40.227Z,40.25
2023-05-21T01:40:40.206Z,40.25
2023-05-21T01:41:40.190Z,40.26
2023-05-21T01:42:41.930Z,40.24
2023-05-21T01:43:40.196Z,40.25
2023-05-21T01:44:40.186Z,40.29
2023-05-21T01:45:40.188Z,40.26
2023-05-21T01:46:40.190Z,40.22
2023-05-21T01:47:40.197Z,40.25
2023-05-21T01:48:40.150Z,40.25
2023-05-21T01:49:40.124Z,40.27
2023-05-21T01:50:40.135Z,40.24
2023-05-21T01:51:40.136Z,40.27
2023-05-21T01:52:40.110Z,40.26
2023-05-21T01:53:40.106Z,40.27
2023-05-21T01:54:40.139Z,40.30
2023-05-21T01:55:40.169Z,40.32
2023-05-21T01:56:40.110Z,40.32
2023-05-21T01:57:40.110Z,40.36
2023-05-21T01:58:40.096Z,40.35
2023-05-21T01:59:40.088Z,40.35
2023-05-21T02:00:40.128Z,40.39
2023-05-21T02:01:40.119Z,40.40
2023-05-21T02:02:40.142Z,40.42
2023-05-21T02:03:40.108Z,40.45
2023-05-21T02:04:40.043Z,40.48
2023-05-21T02:05:40.064Z,40.48
2023-05-21T02:06:40.055Z,40.52
2023-05-21T02:07:40.057Z,40.59
2023-05-21T02:08:40.090Z,40.60
2023-05-21T02:09:40.105Z,40.60
2023-05-21T02:10:40.133Z,40.61
2023-05-21T02:11:40.154Z,40.60
2023-05-21T02:12:40.173Z,40.61
2023-05-21T02:13:40.201Z,40.63
2023-05-21T02:14:40.202Z,40.66
2023-05-21T02:15:40.238Z,40.67
2023-05-21T02:16:40.377Z,40.69
2023-05-21T02:17:40.298Z,40.73
2023-05-21T02:18:40.263Z,40.74
2023-05-21T02:19:40.310Z,40.75
2023-05-21T02:20:40.352Z,40.77
2023-05-21T02:21:40.335Z,40.78
2023-05-21T02:22:40.399Z,40.81
2023-05-21T02:23:40.435Z,40.80
2023-05-21T02:24:40.464Z,40.84
2023-05-21T02:25:40.506Z,40.84
2023-05-21T02:26:40.519Z,40.89
2023-05-21T02:27:40.582Z,40.89
2023-05-21T02:28:40.588Z,40.96
2023-05-21T02:29:40.633Z,40.92
2023-05-21T02:30:40.687Z,40.96
2023-05-21T02:31:40.746Z,40.92
2023-05-21T02:32:40.825Z,40.96
2023-05-21T02:33:40.854Z,40.93
2023-05-21T02:34:40.833Z,40.96
2023-05-21T02:35:40.942Z,40.95
2023-05-21T02:36:40.940Z,40.99
2023-05-21T02:37:41.008Z,40.97
2023-05-21T02:38:41.051Z,40.97
2023-05-21T02:39:41.106Z,40.98
2023-05-21T02:40:41.125Z,40.95
2023-05-21T02:41:41.180Z,40.93
2023-05-21T02:42:41.239Z,40.93
2023-05-21T02:43:41.936Z,40.91
2023-05-21T02:44:41.308Z,40.94
2023-05-21T02:45:41.391Z,40.94
2023-05-21T02:46:41.417Z,40.91
2023-05-21T02:47:41.553Z,40.91
2023-05-21T02:48:41.479Z,40.89
2023-05-21T02:49:41.556Z,40.86
2023-05-21T02:50:41.585Z,40.86
2023-05-21T02:51:41.657Z,40.84
2023-05-21T02:52:41.693Z,40.88
2023-05-21T02:53:41.735Z,40.84
2023-05-21T02:54:41.754Z,40.85
2023-05-21T02:55:41.829Z,40.81
2023-05-21T02:56:41.857Z,40.83
2023-05-21T02:57:41.900Z,40.82
2023-05-21T02:58:41.934Z,40.82
2023-05-21T02:59:41.964Z,40.82
2023-05-21T03:00:42.092Z,40.80
2023-05-21T03:01:42.100Z,40.78
2023-05-21T03:02:42.240Z,40.73
2023-05-21T03:03:42.207Z,40.71
2023-05-21T03:04:42.184Z,40.72
2023-05-21T03:05:42.301Z,40.71
2023-05-21T03:06:42.264Z,40.69
2023-05-21T03:07:42.341Z,40.65
2023-05-21T03:08:42.374Z,40.60
2023-05-21T03:09:42.482Z,40.61
2023-05-21T03:10:42.452Z,40.62
2023-05-21T03:11:42.460Z,40.59
2023-05-21T03:12:42.553Z,40.57
2023-05-21T03:13:42.588Z,40.55
2023-05-21T03:14:42.687Z,40.50
2023-05-21T03:15:42.699Z,40.47
2023-05-21T03:16:42.696Z,40.45
2023-05-21T03:17:42.816Z,40.47
2023-05-21T03:18:42.795Z,40.45
2023-05-21T03:19:42.881Z,40.46
2023-05-21T03:20:42.900Z,40.46
2023-05-21T03:21:42.922Z,40.48
2023-05-21T03:22:42.958Z,40.50
2023-05-21T03:23:42.988Z,40.50
2023-05-21T03:24:43.048Z,40.52
2023-05-21T03:25:43.094Z,40.56
2023-05-21T03:26:43.164Z,40.54
2023-05-21T03:27:43.232Z,40.56
2023-05-21T03:28:43.224Z,40.60
2023-05-21T03:29:43.301Z,40.62
2023-05-21T03:30:43.310Z,40.57
2023-05-21T03:31:43.368Z,40.54
2023-05-21T03:32:43.452Z,40.54
2023-05-21T03:33:43.471Z,40.56
2023-05-21T03:34:43.502Z,40.55
2023-05-21T03:35:43.575Z,40.54
2023-05-21T03:36:43.656Z,40.57
2023-05-21T03:37:43.651Z,40.54
2023-05-21T03:38:43.704Z,40.56
2023-05-21T03:39:43.749Z,40.56
2023-05-21T03:40:43.791Z,40.53
2023-05-21T03:41:43.855Z,40.58
2023-05-21T03:42:43.888Z,40.56
2023-05-21T03:43:43.946Z,40.58
2023-05-21T03:44:43.996Z,40.58
2023-05-21T03:45:44.657Z,40.58
2023-05-21T03:46:44.118Z,40.55
2023-05-21T03:47:44.229Z,40.55
2023-05-21T03:48:44.230Z,40.56
2023-05-21T03:49:44.287Z,40.58
2023-05-21T03:50:44.334Z,40.57
2023-05-21T03:51:44.406Z,40.59
2023-05-21T03:52:44.449Z,40.60
2023-05-21T03:53:44.502Z,40.60
2023-05-21T03:54:44.542Z,40.60
2023-05-21T03:55:44.621Z,40.57
2023-05-21T03:56:44.636Z,40.57
2023-05-21T03:57:44.705Z,40.63
2023-05-21T03:58:44.761Z,40.62
2023-05-21T03:59:44.837Z,40.68
2023-05-21T04:00:44.922Z,40.72
2023-05-21T04:01:44.930Z,40.74
2023-05-21T04:02:45.056Z,40.77
2023-05-21T04:03:45.203Z,40.83
2023-05-21T04:04:45.086Z,40.86
2023-05-21T04:05:45.199Z,40.87
2023-05-21T04:06:45.262Z,40.98
2023-05-21T04:07:45.270Z,41.00
2023-05-21T04:08:45.325Z,41.04
2023-05-21T04:09:45.386Z,41.07
2023-05-21T04:10:45.452Z,41.10
2023-05-21T04:11:45.514Z,41.15
2023-05-21T04:12:45.541Z,41.14
2023-05-21T04:13:45.631Z,41.20
2023-05-21T04:14:45.683Z,41.22
2023-05-21T04:15:45.774Z,41.25
2023-05-21T04:16:45.808Z,41.35
2023-05-21T04:17:45.887Z,41.31
2023-05-21T04:18:45.935Z,41.38
2023-05-21T04:19:46.004Z,41.45
2023-05-21T04:20:46.057Z,41.49
2023-05-21T04:21:46.154Z,41.49
2023-05-21T04:22:46.188Z,41.54
2023-05-21T04:23:46.343Z,41.58
2023-05-21T04:24:46.274Z,41.56
2023-05-21T04:25:46.375Z,41.53
2023-05-21T04:26:46.421Z,41.57
2023-05-21T04:27:46.446Z,41.61
2023-05-21T04:28:46.545Z,41.64
2023-05-21T04:29:47.321Z,41.63
2023-05-21T04:30:46.651Z,41.64
2023-05-21T04:31:46.822Z,41.67
2023-05-21T04:32:46.885Z,41.74
2023-05-21T04:33:46.837Z,41.70
2023-05-21T04:34:46.943Z,41.67
2023-05-21T04:35:46.947Z,41.73
2023-05-21T04:36:47.066Z,41.69
2023-05-21T04:37:47.080Z,41.71
2023-05-21T04:38:47.115Z,41.72
2023-05-21T04:39:47.190Z,41.74
2023-05-21T04:40:47.269Z,41.73
2023-05-21T04:41:47.402Z,41.76
2023-05-21T04:42:47.354Z,41.75
2023-05-21T04:43:47.415Z,41.77
2023-05-21T04:44:47.465Z,41.74
2023-05-21T04:45:47.529Z,41.72
2023-05-21T04:46:47.622Z,41.71
2023-05-21T04:47:47.732Z,41.70
2023-05-21T04:48:47.726Z,41.69
2023-05-21T04:49:47.776Z,41.67
2023-05-21T04:50:47.820Z,41.63
2023-05-21T04:51:47.878Z,41.67
2023-05-21T04:52:47.950Z,41.69
2023-05-21T04:53:48.023Z,41.70
2023-05-21T04:54:48.056Z,41.73
2023-05-21T04:55:48.156Z,41.72
2023-05-21T04:56:48.189Z,41.71
2023-05-21T04:57:48.243Z,41.66
2023-05-21T04:58:48.285Z,41.66
2023-05-21T04:59:48.342Z,41.67
2023-05-21T05:00:48.465Z,41.65
2023-05-21T05:01:48.467Z,41.67
2023-05-21T05:02:48.611Z,41.65
2023-05-21T05:03:48.705Z,41.65
2023-05-21T05:04:48.673Z,41.66
2023-05-21T05:05:48.744Z,41.65
2023-05-21T05:06:48.800Z,41.64
2023-05-21T05:07:48.877Z,41.64
2023-05-21T05:08:48.907Z,41.64
2023-05-21T05:09:48.972Z,41.66
2023-05-21T05:10:49.060Z,41.66
2023-05-21T05:11:49.098Z,41.63
2023-05-21T05:12:49.207Z,41.62
2023-05-21T05:13:49.256Z,41.63
2023-05-21T05:14:49.275Z,41.63
2023-05-21T05:15:50.603Z,41.64
2023-05-21T05:16:49.416Z,41.64
2023-05-21T05:17:49.514Z,41.63
2023-05-21T05:18:49.558Z,41.62
2023-05-21T05:19:49.546Z,41.64
2023-05-21T05:20:49.613Z,41.65
2023-05-21T05:21:49.650Z,41.66
2023-05-21T05:22:49.737Z,41.69
2023-05-21T05:23:49.738Z,41.69
2023-05-21T05:24:49.849Z,41.67
2023-05-21T05:25:49.853Z,41.69
2023-05-21T05:26:49.911Z,41.69
2023-05-21T05:27:50.004Z,41.70
2023-05-21T05:28:50.030Z,41.72
2023-05-21T05:29:50.070Z,41.70
2023-05-21T05:30:50.125Z,41.73
2023-05-21T05:31:50.176Z,41.71
2023-05-21T05:32:50.279Z,41.73
2023-05-21T05:33:50.277Z,41.71
2023-05-21T05:34:50.322Z,41.73
2023-05-21T05:35:50.375Z,41.76
2023-05-21T05:36:50.441Z,41.72
2023-05-21T05:37:50.483Z,41.74
2023-05-21T05:38:50.529Z,41.73
2023-05-21T05:39:50.608Z,41.72
2023-05-21T05:40:50.624Z,41.72
2023-05-21T05:41:50.703Z,41.70
2023-05-21T05:42:50.737Z,41.65
2023-05-21T05:43:50.806Z,41.66
2023-05-21T05:44:50.801Z,41.65
2023-05-21T05:45:50.930Z,41.63
2023-05-21T05:46:50.959Z,41.57
2023-05-21T05:47:51.041Z,41.55
2023-05-21T05:48:51.050Z,41.54
2023-05-21T05:49:51.075Z,41.52
2023-05-21T05:50:51.168Z,41.53
2023-05-21T05:51:51.219Z,41.50
2023-05-21T05:52:51.284Z,41.52
2023-05-21T05:53:51.315Z,41.49
2023-05-21T05:54:51.353Z,41.48
2023-05-21T05:55:51.412Z,41.45
2023-05-21T05:56:53.048Z,41.44
2023-05-21T05:57:51.545Z,41.44
2023-05-21T05:58:51.561Z,41.43
2023-05-21T05:59:51.631Z,41.39
2023-05-21T06:00:51.663Z,41.36
2023-05-21T06:01:51.708Z,41.31
2023-05-21T06:02:51.856Z,41.26
2023-05-21T06:03:51.887Z,41.24
2023-05-21T06:04:51.857Z,41.23
2023-05-21T06:05:51.916Z,41.20
2023-05-21T06:06:51.949Z,41.19
2023-05-21T06:07:52.018Z,41.17
2023-05-21T06:08:52.055Z,41.17
2023-05-21T06:09:52.127Z,41.16
2023-05-21T06:10:52.130Z,41.14
2023-05-21T06:11:52.195Z,41.15
2023-05-21T06:12:52.221Z,41.12
2023-05-21T06:13:52.276Z,41.06
2023-05-21T06:14:52.336Z,41.06
2023-05-21T06:15:52.374Z,41.06
2023-05-21T06:16:52.374Z,41.07
2023-05-21T06:17:52.470Z,41.10
2023-05-21T06:18:52.499Z,41.08
2023-05-21T06:19:52.501Z,41.08
2023-05-21T06:20:52.549Z,41.08
2023-05-21T06:21:52.579Z,41.03
2023-05-21T06:22:52.649Z,41.08
2023-05-21T06:23:52.671Z,41.03
2023-05-21T06:24:52.728Z,41.05
2023-05-21T06:25:52.764Z,41.04
2023-05-21T06:26:52.837Z,41.02
2023-05-21T06:27:52.820Z,41.02
2023-05-21T06:28:52.834Z,41.05
2023-05-21T06:29:52.870Z,41.02
2023-05-21T06:30:52.920Z,41.03
2023-05-21T06:31:52.956Z,41.01
2023-05-21T06:32:53.096Z,41.01
2023-05-21T06:33:53.150Z,41.00
2023-05-21T06:34:53.016Z,41.00
2023-05-21T06:35:53.053Z,40.96
2023-05-21T06:36:53.098Z,40.94
2023-05-21T06:37:53.128Z,40.92
2023-05-21T06:38:53.138Z,40.91
2023-05-21T06:39:53.197Z,40.88
2023-05-21T06:40:53.188Z,40.86
2023-05-21T06:41:53.247Z,40.83
2023-05-21T06:42:53.367Z,40.83
2023-05-21T06:43:53.314Z,40.81
2023-05-21T06:44:53.313Z,40.79
2023-05-21T06:45:53.380Z,40.82
2023-05-21T06:46:53.402Z,40.83
2023-05-21T06:47:53.440Z,40.82
2023-05-21T06:48:53.480Z,40.80
2023-05-21T06:49:53.496Z,40.81
2023-05-21T06:50:53.521Z,40.83
2023-05-21T06:51:53.570Z,40.81
2023-05-21T06:52:53.579Z,40.79
2023-05-21T06:53:53.642Z,40.81
2023-05-21T06:54:53.671Z,40.82
2023-05-21T06:55:53.859Z,40.83
2023-05-21T06:56:53.704Z,40.82
2023-05-21T06:57:53.732Z,40.80
2023-05-21T06:58:53.785Z,40.80
2023-05-21T06:59:53.806Z,40.78
2023-05-21T07:00:53.885Z,40.73
2023-05-21T07:01:53.920Z,40.71
2023-05-21T07:02:53.961Z,40.71
2023-05-21T07:03:53.924Z,40.69
2023-05-21T07:04:53.956Z,40.70
2023-05-21T07:05:53.964Z,40.70
2023-05-21T07:06:54.004Z,40.69
2023-05-21T07:07:53.990Z,40.70
2023-05-21T07:08:54.036Z,40.68
2023-05-21T07:09:54.061Z,40.64
2023-05-21T07:10:54.123Z,40.66
2023-05-21T07:11:54.085Z,40.65
2023-05-21T07:12:54.097Z,40.66
2023-05-21T07:13:54.171Z,40.68
2023-05-21T07:14:54.175Z,40.67
2023-05-21T07:15:54.192Z,40.65
2023-05-21T07:16:54.216Z,40.67
2023-05-21T07:17:54.303Z,40.65
2023-05-21T07:18:54.256Z,40.70
2023-05-21T07:19:54.224Z,40.68
2023-05-21T07:20:54.258Z,40.63
2023-05-21T07:21:54.328Z,40.64
2023-05-21T07:22:54.295Z,40.60
2023-05-21T07:23:54.301Z,40.61
2023-05-21T07:24:54.320Z,40.60
2023-05-21T07:25:54.303Z,40.59
2023-05-21T07:26:54.324Z,40.58
2023-05-21T07:27:54.315Z,40.59
2023-05-21T07:28:54.335Z,40.59
2023-05-21T07:29:54.346Z,40.57
2023-05-21T07:30:54.393Z,40.61
2023-05-21T07:31:54.324Z,40.59
2023-05-21T07:32:54.375Z,40.56
2023-05-21T07:33:54.330Z,40.54
2023-05-21T07:34:54.613Z,40.52
2023-05-21T07:35:54.340Z,40.54
2023-05-21T07:36:54.334Z,40.52
2023-05-21T07:37:54.419Z,40.48
2023-05-21T07:38:54.363Z,40.50
2023-05-21T07:39:54.305Z,40.46
2023-05-21T07:40:54.346Z,40.48
2023-05-21T07:41:54.411Z,40.56
2023-05-21T07:42:54.412Z,40.54
2023-05-21T07:43:54.441Z,40.52
2023-05-21T07:44:54.496Z,40.49
2023-05-21T07:45:54.550Z,40.45
2023-05-21T07:46:54.555Z,40.41
2023-05-21T07:47:54.602Z,40.44
2023-05-21T07:48:54.627Z,40.45
2023-05-21T07:49:54.702Z,40.44
2023-05-21T07:50:54.782Z,40.42
2023-05-21T07:51:54.832Z,40.40
2023-05-21T07:52:54.965Z,40.38
2023-05-21T07:53:55.456Z,40.34
2023-05-21T07:54:55.026Z,40.27
2023-05-21T07:55:55.545Z,40.26
2023-05-21T07:56:55.154Z,40.22
2023-05-21T07:57:55.169Z,40.18
2023-05-21T07:58:55.245Z,40.20
2023-05-21T07:59:55.330Z,40.19
2023-05-21T08:00:55.356Z,40.16
2023-05-21T08:01:55.381Z,40.16
2023-05-21T08:02:55.511Z,40.16
2023-05-21T08:03:55.608Z,40.20
2023-05-21T08:04:55.578Z,40.21
2023-05-21T08:05:55.608Z,40.18
2023-05-21T08:06:55.661Z,40.16
2023-05-21T08:07:55.670Z,40.16
2023-05-21T08:08:55.727Z,40.17
2023-05-21T08:09:55.798Z,40.17
2023-05-21T08:10:55.831Z,40.16
2023-05-21T08:11:55.840Z,40.14
2023-05-21T08:12:55.910Z,40.14
2023-05-21T08:13:55.948Z,40.09
2023-05-21T08:14:56.000Z,40.08
2023-05-21T08:15:56.066Z,40.10
2023-05-21T08:16:56.066Z,40.08
2023-05-21T08:17:56.104Z,40.10
2023-05-21T08:18:56.150Z,40.03
2023-05-21T08:19:56.179Z,39.95
2023-05-21T08:20:56.179Z,39.94
2023-05-21T08:21:56.238Z,39.95
2023-05-21T08:22:56.223Z,39.92
2023-05-21T08:23:56.259Z,39.93
2023-05-21T08:24:56.304Z,39.89
2023-05-21T08:25:56.322Z,39.86
2023-05-21T08:26:56.325Z,39.87
2023-05-21T08:27:56.375Z,39.84
2023-05-21T08:28:56.394Z,39.84
2023-05-21T08:29:56.446Z,39.83
2023-05-21T08:30:56.453Z,39.83
2023-05-21T08:31:56.509Z,39.78
2023-05-21T08:32:56.545Z,39.77
2023-05-21T08:33:56.533Z,39.77
2023-05-21T08:34:56.553Z,39.75
2023-05-21T08:35:56.605Z,39.74
2023-05-21T08:36:56.591Z,39.72
2023-05-21T08:37:56.617Z,39.71
2023-05-21T08:38:56.595Z,39.71
2023-05-21T08:39:56.642Z,39.71
2023-05-21T08:40:56.684Z,39.75
2023-05-21T08:41:56.666Z,39.73
2023-05-21T08:42:56.676Z,39.69
2023-05-21T08:43:56.724Z,39.71
2023-05-21T08:44:56.747Z,39.70
2023-05-21T08:45:56.759Z,39.67
2023-05-21T08:46:56.765Z,39.70
2023-05-21T08:47:56.870Z,39.66
2023-05-21T08:48:56.788Z,39.67
2023-05-21T08:49:56.814Z,39.65
2023-05-21T08:50:56.806Z,39.67
2023-05-21T08:51:56.828Z,39.70
2023-05-21T08:52:56.819Z,39.70
2023-05-21T08:53:56.850Z,39.65
2023-05-21T08:54:56.897Z,39.70
2023-05-21T08:55:56.893Z,39.70
2023-05-21T08:56:56.907Z,39.66
2023-05-21T08:57:56.877Z,39.68
2023-05-21T08:58:56.869Z,39.72
2023-05-21T08:59:56.934Z,39.71
2023-05-21T09:00:56.907Z,39.73
2023-05-21T09:01:57.032Z,39.73
2023-05-21T09:02:56.968Z,39.71
2023-05-21T09:04:04.953Z,39.74
2023-05-21T09:04:57.930Z,39.73
2023-05-21T09:05:56.913Z,39.73
2023-05-21T09:06:56.891Z,39.69
2023-05-21T09:07:56.879Z,39.72
2023-05-21T09:08:56.858Z,39.62
2023-05-21T09:09:56.856Z,39.53
2023-05-21T09:10:56.883Z,39.53
2023-05-21T09:11:56.843Z,39.51
2023-05-21T09:12:56.867Z,39.45
2023-05-21T09:13:56.831Z,39.41
2023-05-21T09:14:56.812Z,39.34
2023-05-21T09:15:56.847Z,39.30
2023-05-21T09:16:56.933Z,39.27
2023-05-21T09:17:56.928Z,39.17
2023-05-21T09:18:56.841Z,39.09
2023-05-21T09:19:56.813Z,39.05
2023-05-21T09:20:56.785Z,38.80
2023-05-21T09:21:56.796Z,38.66
2023-05-21T09:22:56.789Z,38.40
2023-05-21T09:23:56.780Z,38.23
2023-05-21T09:24:56.756Z,38.09
2023-05-21T09:25:56.810Z,37.95
2023-05-21T09:26:56.772Z,37.87
2023-05-21T09:27:56.730Z,37.65
2023-05-21T09:28:56.738Z,37.50
2023-05-21T09:29:56.716Z,37.39
2023-05-21T09:30:56.814Z,37.45
2023-05-21T09:31:56.749Z,37.22
2023-05-21T09:32:56.763Z,37.17
2023-05-21T09:33:56.721Z,36.99
2023-05-21T09:34:56.716Z,37.01
2023-05-21T09:35:56.721Z,36.94
2023-05-21T09:36:56.707Z,36.83
2023-05-21T09:37:56.716Z,36.62
2023-05-21T09:38:56.664Z,36.63
2023-05-21T09:39:56.666Z,36.57
2023-05-21T09:40:56.762Z,36.59
2023-05-21T09:41:56.740Z,36.56
2023-05-21T09:42:56.803Z,36.36
2023-05-21T09:43:56.867Z,36.39
2023-05-21T09:44:56.955Z,36.23
2023-05-21T09:45:58.979Z,36.20
2023-05-21T09:46:57.105Z,36.16
2023-05-21T09:47:57.006Z,36.14
2023-05-21T09:48:56.962Z,35.86
2023-05-21T09:49:56.984Z,35.89
2023-05-21T09:50:56.956Z,35.68
2023-05-21T09:51:56.961Z,35.64
2023-05-21T09:52:56.928Z,35.61
2023-05-21T09:53:56.941Z,35.54
2023-05-21T09:54:56.929Z,35.45
2023-05-21T09:55:56.933Z,35.46
2023-05-21T09:56:56.953Z,35.47
2023-05-21T09:57:56.938Z,35.19
2023-05-21T09:58:56.904Z,35.11
2023-05-21T09:59:56.907Z,34.92
2023-05-21T10:00:56.898Z,34.80
2023-05-21T10:01:56.938Z,34.66
2023-05-21T10:02:56.938Z,34.46
2023-05-21T10:03:56.941Z,34.36
2023-05-21T10:04:56.884Z,34.36
2023-05-21T10:05:56.878Z,34.17
2023-05-21T10:06:56.879Z,34.21
2023-05-21T10:07:56.851Z,33.97
2023-05-21T10:08:56.852Z,33.91
2023-05-21T10:09:56.841Z,33.93
2023-05-21T10:10:56.881Z,33.76
2023-05-21T10:11:56.924Z,33.64
2023-05-21T10:12:56.976Z,33.61
2023-05-21T10:13:56.978Z,33.56
2023-05-21T10:14:57.044Z,33.52
2023-05-21T10:15:57.113Z,33.46
2023-05-21T10:16:57.123Z,33.44
2023-05-21T10:17:57.179Z,33.35
2023-05-21T10:18:57.222Z,33.26
2023-05-21T10:19:57.227Z,33.32
2023-05-21T10:20:57.240Z,33.30
2023-05-21T10:21:57.305Z,33.45
2023-05-21T10:22:57.347Z,33.50
2023-05-21T10:23:57.369Z,33.34
2023-05-21T10:24:57.421Z,33.26
2023-05-21T10:25:57.475Z,33.23
2023-05-21T10:26:57.465Z,33.13
2023-05-21T10:27:57.532Z,33.14
2023-05-21T10:28:57.553Z,33.12
2023-05-21T10:29:57.609Z,33.12
2023-05-21T10:30:57.663Z,33.10
2023-05-21T10:31:57.683Z,33.01
2023-05-21T10:32:57.934Z,33.04
2023-05-21T10:33:57.743Z,33.04
2023-05-21T10:34:59.315Z,33.10
2023-05-21T10:35:57.787Z,33.03
2023-05-21T10:36:57.772Z,32.98
2023-05-21T10:37:57.768Z,32.99
2023-05-21T10:38:57.731Z,32.92
2023-05-21T10:39:57.723Z,32.77
2023-05-21T10:40:57.755Z,32.70
2023-05-21T10:41:59.225Z,32.67
2023-05-21T10:42:57.719Z,32.58
2023-05-21T10:43:57.683Z,32.48
2023-05-21T10:44:57.712Z,32.47
2023-05-21T10:45:57.776Z,32.47
2023-05-21T10:46:57.696Z,32.47
2023-05-21T10:47:57.728Z,32.42
2023-05-21T10:48:57.671Z,32.31
2023-05-21T10:49:57.657Z,32.36
2023-05-21T10:50:57.675Z,32.36
2023-05-21T10:51:57.681Z,32.30
2023-05-21T10:52:57.670Z,32.23
2023-05-21T10:53:57.635Z,32.12
2023-05-21T10:54:57.653Z,32.13
2023-05-21T10:55:57.617Z,32.17
2023-05-21T10:56:57.602Z,32.16
2023-05-21T10:57:57.648Z,32.16
2023-05-21T10:58:57.649Z,32.03
2023-05-21T10:59:57.635Z,32.00
2023-05-21T11:00:57.670Z,32.01
2023-05-21T11:01:57.609Z,31.94
2023-05-21T11:02:57.664Z,31.95
2023-05-21T11:03:57.627Z,31.87
2023-05-21T11:04:57.585Z,31.87
2023-05-21T11:05:57.603Z,31.74
2023-05-21T11:06:58.624Z,31.59
2023-05-21T11:07:57.689Z,31.54
2023-05-21T11:08:57.564Z,31.42
2023-05-21T11:09:57.554Z,31.35
2023-05-21T11:10:57.606Z,31.35
2023-05-21T11:11:57.527Z,31.28
2023-05-21T11:12:57.532Z,31.13
2023-05-21T11:13:57.535Z,31.03
2023-05-21T11:14:57.591Z,31.00
2023-05-21T11:15:57.617Z,30.93
2023-05-21T11:16:57.638Z,30.91
2023-05-21T11:17:57.688Z,30.79
2023-05-21T11:18:57.658Z,30.82
2023-05-21T11:19:57.644Z,30.71
2023-05-21T11:20:57.633Z,30.68
2023-05-21T11:21:57.647Z,30.69
2023-05-21T11:22:57.637Z,30.67
2023-05-21T11:23:57.711Z,30.64
2023-05-21T11:24:57.719Z,30.50
2023-05-21T11:25:57.714Z,30.48
2023-05-21T11:26:57.729Z,30.43
2023-05-21T11:27:57.740Z,30.39
2023-05-21T11:28:57.785Z,30.37
2023-05-21T11:29:57.770Z,30.37
2023-05-21T11:30:57.810Z,30.37
2023-05-21T11:31:57.806Z,30.35
2023-05-21T11:32:57.841Z,30.38
2023-05-21T11:33:57.827Z,30.37
2023-05-21T11:34:57.837Z,30.40
2023-05-21T11:35:57.834Z,30.40
2023-05-21T11:36:57.901Z,30.47
2023-05-21T11:37:57.894Z,30.45
2023-05-21T11:38:57.927Z,30.45
2023-05-21T11:39:57.923Z,30.52
2023-05-21T11:40:57.922Z,30.53
2023-05-21T11:41:57.933Z,30.50
2023-05-21T11:42:57.998Z,30.56
2023-05-21T11:43:57.989Z,30.64
2023-05-21T11:44:58.009Z,30.65
2023-05-21T11:45:58.076Z,30.66
2023-05-21T11:46:58.045Z,30.71
2023-05-21T11:47:58.111Z,30.66
2023-05-21T11:48:58.094Z,30.64
2023-05-21T11:49:58.080Z,30.69
2023-05-21T11:50:58.138Z,30.64
2023-05-21T11:51:58.140Z,30.68
2023-05-21T11:52:58.182Z,30.61
2023-05-21T11:53:58.169Z,30.65
2023-05-21T11:54:58.209Z,30.66
2023-05-21T11:55:58.244Z,30.68
2023-05-21T11:56:58.214Z,30.72
2023-05-21T11:57:58.238Z,30.77
2023-05-21T11:58:58.258Z,30.94
2023-05-21T11:59:58.356Z,31.05
2023-05-21T12:00:58.315Z,31.11
2023-05-21T12:01:58.323Z,31.16
2023-05-21T12:02:58.428Z,31.19
2023-05-21T12:03:58.393Z,31.23
2023-05-21T12:04:58.321Z,31.23
2023-05-21T12:05:58.509Z,31.21
2023-05-21T12:06:58.413Z,31.25
2023-05-21T12:07:59.120Z,31.36
2023-05-21T12:08:58.625Z,31.47
2023-05-21T12:09:58.473Z,31.48
2023-05-21T12:10:58.483Z,31.46
2023-05-21T12:11:58.565Z,31.44
2023-05-21T12:12:58.537Z,31.46
2023-05-21T12:13:58.558Z,31.47
2023-05-21T12:14:58.623Z,31.52
2023-05-21T12:15:58.616Z,31.61
2023-05-21T12:16:58.714Z,31.66
2023-05-21T12:17:58.638Z,31.69
2023-05-21T12:18:58.670Z,31.77
2023-05-21T12:19:58.696Z,31.83
2023-05-21T12:20:58.702Z,31.83
2023-05-21T12:21:58.735Z,31.84
2023-05-21T12:22:58.716Z,31.91
2023-05-21T12:23:58.730Z,31.92
2023-05-21T12:24:58.777Z,31.88
2023-05-21T12:25:58.783Z,31.96
2023-05-21T12:26:58.799Z,32.04
2023-05-21T12:27:59.112Z,32.11
2023-05-21T12:28:59.619Z,32.12
2023-05-21T12:29:58.863Z,32.24
2023-05-21T12:30:58.867Z,32.23
2023-05-21T12:31:58.842Z,32.25
2023-05-21T12:32:58.929Z,32.45
2023-05-21T12:33:58.890Z,32.43
2023-05-21T12:34:58.900Z,32.45
2023-05-21T12:35:58.964Z,32.50
2023-05-21T12:36:58.955Z,32.59
2023-05-21T12:37:58.969Z,32.59
2023-05-21T12:38:58.950Z,32.66
2023-05-21T12:39:59.004Z,32.74
2023-05-21T12:40:58.990Z,32.81
2023-05-21T12:41:59.038Z,32.90
2023-05-21T12:42:59.064Z,32.94
2023-05-21T12:43:59.057Z,32.98
2023-05-21T12:44:59.105Z,33.04
2023-05-21T12:45:59.155Z,33.12
2023-05-21T12:46:59.134Z,33.15
2023-05-21T12:47:59.200Z,33.20
2023-05-21T12:48:59.171Z,33.22
2023-05-21T12:49:59.175Z,33.17
2023-05-21T12:50:59.225Z,33.24
2023-05-21T12:51:59.232Z,33.20
2023-05-21T12:52:59.231Z,33.13